sensor_id;sensor_type;location;lat;lon;timestamp;temperature;humidity
45803;DHT22;31504;51.716;9.184;2024-02-21T00:02:30;21.30;48.90
45803;DHT22;31504;51.716;9.184;2024-02-21T00:05:31;21.30;48.90
45803;DHT22;31504;51.716;9.184;2024-02-21T00:08:31;21.30;48.80
45803;DHT22;31504;51.716;9.184;2024-02-21T00:11:32;21.30;48.80
45803;DHT22;31504;51.716;9.184;2024-02-21T00:14:32;21.30;48.90
45803;DHT22;31504;51.716;9.184;2024-02-21T00:17:32;21.30;48.80
45803;DHT22;31504;51.716;9.184;2024-02-21T00:20:33;21.30;48.80
45803;DHT22;31504;51.716;9.184;2024-02-21T00:23:33;21.30;48.90
45803;DHT22;31504;51.716;9.184;2024-02-21T00:26:34;21.30;48.90
45803;DHT22;31504;51.716;9.184;2024-02-21T00:29:34;21.30;48.90
45803;DHT22;31504;51.716;9.184;2024-02-21T00:32:35;21.30;48.90
45803;DHT22;31504;51.716;9.184;2024-02-21T00:35:35;21.30;48.90
45803;DHT22;31504;51.716;9.184;2024-02-21T00:38:35;21.30;48.80
45803;DHT22;31504;51.716;9.184;2024-02-21T00:41:36;21.30;48.80
45803;DHT22;31504;51.716;9.184;2024-02-21T00:44:37;21.30;48.80
45803;DHT22;31504;51.716;9.184;2024-02-21T00:47:37;21.30;48.80
45803;DHT22;31504;51.716;9.184;2024-02-21T00:50:38;21.30;48.90
45803;DHT22;31504;51.716;9.184;2024-02-21T00:53:38;21.30;49.00
45803;DHT22;31504;51.716;9.184;2024-02-21T00:56:40;21.20;48.90
45803;DHT22;31504;51.716;9.184;2024-02-21T00:59:40;21.30;48.90
45803;DHT22;31504;51.716;9.184;2024-02-21T01:02:41;21.30;49.00
45803;DHT22;31504;51.716;9.184;2024-02-21T01:05:42;21.30;48.80
45803;DHT22;31504;51.716;9.184;2024-02-21T01:08:42;21.30;49.10
45803;DHT22;31504;51.716;9.184;2024-02-21T01:11:43;21.30;48.80
45803;DHT22;31504;51.716;9.184;2024-02-21T01:14:43;21.30;48.80
45803;DHT22;31504;51.716;9.184;2024-02-21T01:17:44;21.30;48.90
45803;DHT22;31504;51.716;9.184;2024-02-21T01:20:45;21.20;48.90
45803;DHT22;31504;51.716;9.184;2024-02-21T01:23:45;21.30;48.90
45803;DHT22;31504;51.716;9.184;2024-02-21T01:26:46;21.30;48.90
45803;DHT22;31504;51.716;9.184;2024-02-21T01:29:47;21.20;48.90
45803;DHT22;31504;51.716;9.184;2024-02-21T01:32:49;21.30;48.80
45803;DHT22;31504;51.716;9.184;2024-02-21T01:35:50;21.30;48.80
45803;DHT22;31504;51.716;9.184;2024-02-21T01:38:50;21.30;48.80
45803;DHT22;31504;51.716;9.184;2024-02-21T01:41:51;21.30;48.80
45803;DHT22;31504;51.716;9.184;2024-02-21T01:44:51;21.30;48.80
45803;DHT22;31504;51.716;9.184;2024-02-21T01:47:52;21.30;48.80
45803;DHT22;31504;51.716;9.184;2024-02-21T01:50:54;21.30;48.80
45803;DHT22;31504;51.716;9.184;2024-02-21T01:53:55;21.30;48.80
45803;DHT22;31504;51.716;9.184;2024-02-21T01:56:57;21.30;48.80
45803;DHT22;31504;51.716;9.184;2024-02-21T01:59:58;21.30;48.80
45803;DHT22;31504;51.716;9.184;2024-02-21T02:02:58;21.30;48.80
45803;DHT22;31504;51.716;9.184;2024-02-21T02:05:59;21.30;48.80
45803;DHT22;31504;51.716;9.184;2024-02-21T02:09:00;21.30;48.80
45803;DHT22;31504;51.716;9.184;2024-02-21T02:12:01;21.30;48.70
45803;DHT22;31504;51.716;9.184;2024-02-21T02:15:02;21.30;48.70
45803;DHT22;31504;51.716;9.184;2024-02-21T02:18:05;21.30;48.70
45803;DHT22;31504;51.716;9.184;2024-02-21T02:21:10;21.30;48.80
45803;DHT22;31504;51.716;9.184;2024-02-21T02:24:14;21.30;48.80
45803;DHT22;31504;51.716;9.184;2024-02-21T02:27:14;21.30;48.80
45803;DHT22;31504;51.716;9.184;2024-02-21T02:30:15;21.30;48.80
45803;DHT22;31504;51.716;9.184;2024-02-21T02:33:15;21.30;48.80
45803;DHT22;31504;51.716;9.184;2024-02-21T02:36:18;21.30;48.80
45803;DHT22;31504;51.716;9.184;2024-02-21T02:39:18;21.30;48.80
45803;DHT22;31504;51.716;9.184;2024-02-21T02:42:18;21.40;48.80
45803;DHT22;31504;51.716;9.184;2024-02-21T02:45:19;21.30;48.70
45803;DHT22;31504;51.716;9.184;2024-02-21T02:48:19;21.30;48.80
45803;DHT22;31504;51.716;9.184;2024-02-21T02:51:20;21.30;48.80
45803;DHT22;31504;51.716;9.184;2024-02-21T02:54:20;21.20;48.80
45803;DHT22;31504;51.716;9.184;2024-02-21T02:57:21;21.30;48.90
45803;DHT22;31504;51.716;9.184;2024-02-21T03:00:21;21.30;48.90
45803;DHT22;31504;51.716;9.184;2024-02-21T03:03:22;21.30;48.80
45803;DHT22;31504;51.716;9.184;2024-02-21T03:06:22;21.30;48.80
45803;DHT22;31504;51.716;9.184;2024-02-21T03:09:23;21.30;48.80
45803;DHT22;31504;51.716;9.184;2024-02-21T03:12:23;21.30;48.80
45803;DHT22;31504;51.716;9.184;2024-02-21T03:15:28;21.30;48.80
45803;DHT22;31504;51.716;9.184;2024-02-21T03:18:28;21.30;48.80
45803;DHT22;31504;51.716;9.184;2024-02-21T03:21:29;21.30;48.80
45803;DHT22;31504;51.716;9.184;2024-02-21T03:24:29;21.30;48.80
45803;DHT22;31504;51.716;9.184;2024-02-21T03:27:31;21.30;48.80
45803;DHT22;31504;51.716;9.184;2024-02-21T03:30:32;21.30;48.90
45803;DHT22;31504;51.716;9.184;2024-02-21T03:33:34;21.30;48.80
45803;DHT22;31504;51.716;9.184;2024-02-21T03:36:34;21.30;48.80
45803;DHT22;31504;51.716;9.184;2024-02-21T03:39:34;21.30;48.80
45803;DHT22;31504;51.716;9.184;2024-02-21T03:42:35;21.30;48.80
45803;DHT22;31504;51.716;9.184;2024-02-21T03:45:35;21.30;48.70
45803;DHT22;31504;51.716;9.184;2024-02-21T03:48:36;21.30;48.70
45803;DHT22;31504;51.716;9.184;2024-02-21T03:51:37;21.30;48.80
45803;DHT22;31504;51.716;9.184;2024-02-21T03:54:37;21.30;48.80
45803;DHT22;31504;51.716;9.184;2024-02-21T03:57:37;21.30;48.80
45803;DHT22;31504;51.716;9.184;2024-02-21T04:00:38;21.30;48.90
45803;DHT22;31504;51.716;9.184;2024-02-21T04:03:39;21.30;48.80
45803;DHT22;31504;51.716;9.184;2024-02-21T04:06:46;21.30;48.80
45803;DHT22;31504;51.716;9.184;2024-02-21T04:09:47;21.30;48.70
45803;DHT22;31504;51.716;9.184;2024-02-21T04:12:47;21.30;48.70
45803;DHT22;31504;51.716;9.184;2024-02-21T04:15:50;21.30;48.60
45803;DHT22;31504;51.716;9.184;2024-02-21T04:18:52;21.40;48.70
45803;DHT22;31504;51.716;9.184;2024-02-21T04:21:52;21.30;48.60
45803;DHT22;31504;51.716;9.184;2024-02-21T04:24:53;21.40;48.70
45803;DHT22;31504;51.716;9.184;2024-02-21T04:27:53;21.30;48.70
45803;DHT22;31504;51.716;9.184;2024-02-21T04:30:53;21.30;48.60
45803;DHT22;31504;51.716;9.184;2024-02-21T04:33:54;21.30;48.60
45803;DHT22;31504;51.716;9.184;2024-02-21T04:36:54;21.30;48.60
45803;DHT22;31504;51.716;9.184;2024-02-21T04:39:55;21.30;48.60
45803;DHT22;31504;51.716;9.184;2024-02-21T04:42:55;21.30;48.50
45803;DHT22;31504;51.716;9.184;2024-02-21T04:45:55;21.30;48.50
45803;DHT22;31504;51.716;9.184;2024-02-21T04:48:56;21.30;48.50
45803;DHT22;31504;51.716;9.184;2024-02-21T04:51:57;21.30;48.50
45803;DHT22;31504;51.716;9.184;2024-02-21T04:54:58;21.30;48.50
45803;DHT22;31504;51.716;9.184;2024-02-21T04:57:58;21.30;48.50
45803;DHT22;31504;51.716;9.184;2024-02-21T05:00:59;21.30;48.50
45803;DHT22;31504;51.716;9.184;2024-02-21T05:03:59;21.30;48.50
45803;DHT22;31504;51.716;9.184;2024-02-21T05:07:00;21.30;48.50
45803;DHT22;31504;51.716;9.184;2024-02-21T05:10:01;21.30;48.60
45803;DHT22;31504;51.716;9.184;2024-02-21T05:13:03;21.30;48.70
45803;DHT22;31504;51.716;9.184;2024-02-21T05:16:04;21.30;48.80
45803;DHT22;31504;51.716;9.184;2024-02-21T05:19:05;21.30;48.80
45803;DHT22;31504;51.716;9.184;2024-02-21T05:22:05;21.40;48.80
45803;DHT22;31504;51.716;9.184;2024-02-21T05:25:06;21.40;48.80
45803;DHT22;31504;51.716;9.184;2024-02-21T05:28:07;21.40;48.80
45803;DHT22;31504;51.716;9.184;2024-02-21T05:31:07;21.30;48.90
45803;DHT22;31504;51.716;9.184;2024-02-21T05:34:07;21.30;48.90
45803;DHT22;31504;51.716;9.184;2024-02-21T05:37:08;21.30;49.00
45803;DHT22;31504;51.716;9.184;2024-02-21T05:40:09;21.30;49.00
45803;DHT22;31504;51.716;9.184;2024-02-21T05:43:13;21.30;49.00
45803;DHT22;31504;51.716;9.184;2024-02-21T05:46:13;21.40;48.90
45803;DHT22;31504;51.716;9.184;2024-02-21T05:49:14;21.40;48.70
45803;DHT22;31504;51.716;9.184;2024-02-21T05:52:14;21.30;48.60
45803;DHT22;31504;51.716;9.184;2024-02-21T05:55:15;21.30;48.50
45803;DHT22;31504;51.716;9.184;2024-02-21T05:58:15;21.30;48.70
45803;DHT22;31504;51.716;9.184;2024-02-21T06:01:16;21.30;48.70
45803;DHT22;31504;51.716;9.184;2024-02-21T06:04:16;21.30;48.80
45803;DHT22;31504;51.716;9.184;2024-02-21T06:07:16;21.30;49.00
45803;DHT22;31504;51.716;9.184;2024-02-21T06:10:17;21.30;49.10
45803;DHT22;31504;51.716;9.184;2024-02-21T06:13:17;21.30;49.20
45803;DHT22;31504;51.716;9.184;2024-02-21T06:16:18;21.30;49.10
45803;DHT22;31504;51.716;9.184;2024-02-21T06:19:18;21.30;49.20
45803;DHT22;31504;51.716;9.184;2024-02-21T06:22:21;21.30;49.10
45803;DHT22;31504;51.716;9.184;2024-02-21T06:25:21;21.30;49.10
45803;DHT22;31504;51.716;9.184;2024-02-21T06:28:22;21.30;49.10
45803;DHT22;31504;51.716;9.184;2024-02-21T06:31:22;21.30;49.10
45803;DHT22;31504;51.716;9.184;2024-02-21T06:34:23;21.30;49.10
45803;DHT22;31504;51.716;9.184;2024-02-21T06:37:24;21.30;49.10
45803;DHT22;31504;51.716;9.184;2024-02-21T06:40:24;21.30;49.10
45803;DHT22;31504;51.716;9.184;2024-02-21T06:43:25;21.30;49.10
45803;DHT22;31504;51.716;9.184;2024-02-21T06:46:25;21.40;49.10
45803;DHT22;31504;51.716;9.184;2024-02-21T06:49:27;21.40;49.00
45803;DHT22;31504;51.716;9.184;2024-02-21T06:52:28;21.40;49.10
45803;DHT22;31504;51.716;9.184;2024-02-21T06:55:29;21.30;49.10
45803;DHT22;31504;51.716;9.184;2024-02-21T06:58:30;21.30;49.10
45803;DHT22;31504;51.716;9.184;2024-02-21T07:01:31;21.30;49.10
45803;DHT22;31504;51.716;9.184;2024-02-21T07:04:32;21.30;49.10
45803;DHT22;31504;51.716;9.184;2024-02-21T07:07:32;21.30;49.20
45803;DHT22;31504;51.716;9.184;2024-02-21T07:10:32;21.20;49.30
45803;DHT22;31504;51.716;9.184;2024-02-21T07:13:33;21.30;49.20
45803;DHT22;31504;51.716;9.184;2024-02-21T07:16:33;21.30;49.20
45803;DHT22;31504;51.716;9.184;2024-02-21T07:19:34;21.30;49.20
45803;DHT22;31504;51.716;9.184;2024-02-21T07:22:35;21.30;49.30
45803;DHT22;31504;51.716;9.184;2024-02-21T07:25:36;21.30;49.20
45803;DHT22;31504;51.716;9.184;2024-02-21T07:28:36;21.30;49.10
45803;DHT22;31504;51.716;9.184;2024-02-21T07:31:43;21.30;49.00
45803;DHT22;31504;51.716;9.184;2024-02-21T07:34:43;21.30;48.70
45803;DHT22;31504;51.716;9.184;2024-02-21T07:37:44;21.30;48.60
45803;DHT22;31504;51.716;9.184;2024-02-21T07:40:44;21.30;48.00
45803;DHT22;31504;51.716;9.184;2024-02-21T07:43:45;21.30;47.60
45803;DHT22;31504;51.716;9.184;2024-02-21T07:46:45;21.30;47.20
45803;DHT22;31504;51.716;9.184;2024-02-21T07:49:46;21.20;47.00
45803;DHT22;31504;51.716;9.184;2024-02-21T07:52:46;21.30;46.70
45803;DHT22;31504;51.716;9.184;2024-02-21T07:55:47;21.20;46.50
45803;DHT22;31504;51.716;9.184;2024-02-21T07:58:47;21.20;46.20
45803;DHT22;31504;51.716;9.184;2024-02-21T08:01:47;21.20;46.00
45803;DHT22;31504;51.716;9.184;2024-02-21T08:04:48;21.20;45.70
45803;DHT22;31504;51.716;9.184;2024-02-21T08:07:48;21.20;45.60
45803;DHT22;31504;51.716;9.184;2024-02-21T08:10:49;21.20;45.40
45803;DHT22;31504;51.716;9.184;2024-02-21T08:13:49;21.10;45.50
45803;DHT22;31504;51.716;9.184;2024-02-21T08:16:50;21.10;45.40
45803;DHT22;31504;51.716;9.184;2024-02-21T08:19:51;21.10;45.40
45803;DHT22;31504;51.716;9.184;2024-02-21T08:22:51;21.10;45.40
45803;DHT22;31504;51.716;9.184;2024-02-21T08:25:51;21.10;45.30
45803;DHT22;31504;51.716;9.184;2024-02-21T08:28:52;21.10;45.20
45803;DHT22;31504;51.716;9.184;2024-02-21T08:31:53;21.10;45.10
45803;DHT22;31504;51.716;9.184;2024-02-21T08:34:53;21.10;45.00
45803;DHT22;31504;51.716;9.184;2024-02-21T08:37:54;21.10;44.90
45803;DHT22;31504;51.716;9.184;2024-02-21T08:40:55;21.10;44.90
45803;DHT22;31504;51.716;9.184;2024-02-21T08:43:55;21.10;44.80
45803;DHT22;31504;51.716;9.184;2024-02-21T08:46:56;21.10;44.80
45803;DHT22;31504;51.716;9.184;2024-02-21T08:49:56;21.10;44.80
45803;DHT22;31504;51.716;9.184;2024-02-21T08:52:57;21.00;44.80
45803;DHT22;31504;51.716;9.184;2024-02-21T08:55:58;21.00;44.80
45803;DHT22;31504;51.716;9.184;2024-02-21T08:58:59;21.00;44.80
45803;DHT22;31504;51.716;9.184;2024-02-21T09:01:59;21.00;44.60
45803;DHT22;31504;51.716;9.184;2024-02-21T09:05:00;21.00;44.50
45803;DHT22;31504;51.716;9.184;2024-02-21T09:08:00;21.10;44.40
45803;DHT22;31504;51.716;9.184;2024-02-21T09:11:01;21.10;44.30
45803;DHT22;31504;51.716;9.184;2024-02-21T09:14:01;21.10;44.20
45803;DHT22;31504;51.716;9.184;2024-02-21T09:17:04;21.10;44.10
45803;DHT22;31504;51.716;9.184;2024-02-21T09:20:05;21.10;44.10
45803;DHT22;31504;51.716;9.184;2024-02-21T09:23:07;21.10;44.10
45803;DHT22;31504;51.716;9.184;2024-02-21T09:26:08;21.00;44.10
45803;DHT22;31504;51.716;9.184;2024-02-21T09:29:10;21.00;44.00
45803;DHT22;31504;51.716;9.184;2024-02-21T09:32:10;21.00;43.90
45803;DHT22;31504;51.716;9.184;2024-02-21T09:35:11;21.00;43.80
45803;DHT22;31504;51.716;9.184;2024-02-21T09:38:12;21.00;43.60
45803;DHT22;31504;51.716;9.184;2024-02-21T09:41:17;21.00;43.50
45803;DHT22;31504;51.716;9.184;2024-02-21T09:44:18;21.00;43.50
45803;DHT22;31504;51.716;9.184;2024-02-21T09:47:22;21.00;43.40
45803;DHT22;31504;51.716;9.184;2024-02-21T09:50:24;21.00;43.40
45803;DHT22;31504;51.716;9.184;2024-02-21T09:53:25;20.90;43.30
45803;DHT22;31504;51.716;9.184;2024-02-21T09:56:26;20.90;43.30
45803;DHT22;31504;51.716;9.184;2024-02-21T09:59:31;21.00;43.50
45803;DHT22;31504;51.716;9.184;2024-02-21T10:02:31;21.00;43.60
45803;DHT22;31504;51.716;9.184;2024-02-21T10:05:36;21.00;43.80
45803;DHT22;31504;51.716;9.184;2024-02-21T10:08:37;21.10;44.00
45803;DHT22;31504;51.716;9.184;2024-02-21T10:11:37;21.10;44.40
45803;DHT22;31504;51.716;9.184;2024-02-21T10:14:39;21.10;44.70
45803;DHT22;31504;51.716;9.184;2024-02-21T10:17:39;21.10;44.90
45803;DHT22;31504;51.716;9.184;2024-02-21T10:20:40;21.20;45.10
45803;DHT22;31504;51.716;9.184;2024-02-21T10:23:41;21.20;45.30
45803;DHT22;31504;51.716;9.184;2024-02-21T10:26:42;21.20;45.50
45803;DHT22;31504;51.716;9.184;2024-02-21T10:29:43;21.20;45.70
45803;DHT22;31504;51.716;9.184;2024-02-21T10:32:55;21.20;45.90
45803;DHT22;31504;51.716;9.184;2024-02-21T10:36:05;21.20;46.10
45803;DHT22;31504;51.716;9.184;2024-02-21T10:39:05;21.30;46.20
45803;DHT22;31504;51.716;9.184;2024-02-21T10:42:06;21.30;46.20
45803;DHT22;31504;51.716;9.184;2024-02-21T10:45:07;21.40;46.30
45803;DHT22;31504;51.716;9.184;2024-02-21T10:48:10;21.40;46.30
45803;DHT22;31504;51.716;9.184;2024-02-21T10:54:13;21.40;46.60
45803;DHT22;31504;51.716;9.184;2024-02-21T10:57:16;21.40;46.80
45803;DHT22;31504;51.716;9.184;2024-02-21T11:00:17;21.30;46.90
45803;DHT22;31504;51.716;9.184;2024-02-21T11:03:18;21.30;47.10
45803;DHT22;31504;51.716;9.184;2024-02-21T11:06:18;21.30;47.20
45803;DHT22;31504;51.716;9.184;2024-02-21T11:09:28;21.20;47.20
45803;DHT22;31504;51.716;9.184;2024-02-21T11:12:32;21.30;47.40
45803;DHT22;31504;51.716;9.184;2024-02-21T11:15:32;21.20;47.30
45803;DHT22;31504;51.716;9.184;2024-02-21T11:18:33;21.20;47.40
45803;DHT22;31504;51.716;9.184;2024-02-21T11:21:34;21.20;47.40
45803;DHT22;31504;51.716;9.184;2024-02-21T11:24:35;21.30;47.50
45803;DHT22;31504;51.716;9.184;2024-02-21T11:27:38;21.30;47.60
45803;DHT22;31504;51.716;9.184;2024-02-21T11:30:38;21.30;47.60
45803;DHT22;31504;51.716;9.184;2024-02-21T11:33:40;21.30;47.60
45803;DHT22;31504;51.716;9.184;2024-02-21T11:36:51;21.30;47.70
45803;DHT22;31504;51.716;9.184;2024-02-21T11:39:51;21.30;47.70
45803;DHT22;31504;51.716;9.184;2024-02-21T11:42:57;21.20;47.80
45803;DHT22;31504;51.716;9.184;2024-02-21T11:45:59;21.30;47.80
45803;DHT22;31504;51.716;9.184;2024-02-21T11:48:59;21.30;47.80
45803;DHT22;31504;51.716;9.184;2024-02-21T11:52:02;21.30;47.80
45803;DHT22;31504;51.716;9.184;2024-02-21T11:55:05;21.30;47.90
45803;DHT22;31504;51.716;9.184;2024-02-21T11:58:06;21.30;48.00
45803;DHT22;31504;51.716;9.184;2024-02-21T12:01:07;21.30;48.00
45803;DHT22;31504;51.716;9.184;2024-02-21T12:04:07;21.20;48.00
45803;DHT22;31504;51.716;9.184;2024-02-21T12:07:08;21.20;48.00
45803;DHT22;31504;51.716;9.184;2024-02-21T12:10:12;21.30;48.10
45803;DHT22;31504;51.716;9.184;2024-02-21T12:13:13;21.30;48.10
45803;DHT22;31504;51.716;9.184;2024-02-21T12:16:16;21.30;48.10
45803;DHT22;31504;51.716;9.184;2024-02-21T12:19:18;21.30;48.20
45803;DHT22;31504;51.716;9.184;2024-02-21T12:22:18;21.30;48.20
45803;DHT22;31504;51.716;9.184;2024-02-21T12:25:21;21.30;48.20
45803;DHT22;31504;51.716;9.184;2024-02-21T12:28:27;21.30;48.30
45803;DHT22;31504;51.716;9.184;2024-02-21T12:31:28;21.20;48.30
45803;DHT22;31504;51.716;9.184;2024-02-21T12:34:28;21.30;48.70
45803;DHT22;31504;51.716;9.184;2024-02-21T12:37:32;21.30;48.40
45803;DHT22;31504;51.716;9.184;2024-02-21T12:40:34;21.30;48.40
45803;DHT22;31504;51.716;9.184;2024-02-21T12:43:35;21.30;48.50
45803;DHT22;31504;51.716;9.184;2024-02-21T12:46:36;21.20;48.50
45803;DHT22;31504;51.716;9.184;2024-02-21T12:49:36;21.20;48.60
45803;DHT22;31504;51.716;9.184;2024-02-21T12:52:37;21.20;48.60
45803;DHT22;31504;51.716;9.184;2024-02-21T12:55:37;21.30;48.60
45803;DHT22;31504;51.716;9.184;2024-02-21T12:58:38;21.20;48.70
45803;DHT22;31504;51.716;9.184;2024-02-21T13:01:39;21.10;48.70
45803;DHT22;31504;51.716;9.184;2024-02-21T13:04:39;21.10;48.70
45803;DHT22;31504;51.716;9.184;2024-02-21T13:07:41;21.10;48.70
45803;DHT22;31504;51.716;9.184;2024-02-21T13:10:42;21.20;48.90
45803;DHT22;31504;51.716;9.184;2024-02-21T13:13:42;21.20;49.00
45803;DHT22;31504;51.716;9.184;2024-02-21T13:16:42;21.20;48.90
45803;DHT22;31504;51.716;9.184;2024-02-21T13:19:43;21.20;49.00
45803;DHT22;31504;51.716;9.184;2024-02-21T13:22:43;21.20;49.00
45803;DHT22;31504;51.716;9.184;2024-02-21T13:25:44;21.20;49.00
45803;DHT22;31504;51.716;9.184;2024-02-21T13:28:47;21.20;49.10
45803;DHT22;31504;51.716;9.184;2024-02-21T13:31:49;21.20;49.10
45803;DHT22;31504;51.716;9.184;2024-02-21T13:34:50;21.20;49.20
45803;DHT22;31504;51.716;9.184;2024-02-21T13:37:52;21.20;49.10
45803;DHT22;31504;51.716;9.184;2024-02-21T13:40:53;21.20;49.10
45803;DHT22;31504;51.716;9.184;2024-02-21T13:43:54;21.20;49.30
45803;DHT22;31504;51.716;9.184;2024-02-21T13:46:54;21.20;49.20
45803;DHT22;31504;51.716;9.184;2024-02-21T13:49:55;21.20;49.20
45803;DHT22;31504;51.716;9.184;2024-02-21T13:52:56;21.20;49.10
45803;DHT22;31504;51.716;9.184;2024-02-21T13:55:56;21.20;49.00
45803;DHT22;31504;51.716;9.184;2024-02-21T13:59:00;21.30;49.00
45803;DHT22;31504;51.716;9.184;2024-02-21T14:02:00;21.30;49.00
45803;DHT22;31504;51.716;9.184;2024-02-21T14:05:02;21.20;49.00
45803;DHT22;31504;51.716;9.184;2024-02-21T14:08:06;21.20;49.00
45803;DHT22;31504;51.716;9.184;2024-02-21T14:11:07;21.20;48.90
45803;DHT22;31504;51.716;9.184;2024-02-21T14:14:07;21.20;48.90
45803;DHT22;31504;51.716;9.184;2024-02-21T14:17:07;21.20;48.90
45803;DHT22;31504;51.716;9.184;2024-02-21T14:20:08;21.30;48.90
45803;DHT22;31504;51.716;9.184;2024-02-21T14:23:10;21.30;48.90
45803;DHT22;31504;51.716;9.184;2024-02-21T14:26:10;21.20;48.80
45803;DHT22;31504;51.716;9.184;2024-02-21T14:29:12;21.30;48.80
45803;DHT22;31504;51.716;9.184;2024-02-21T14:32:13;21.20;48.80
45803;DHT22;31504;51.716;9.184;2024-02-21T14:35:13;21.30;48.80
45803;DHT22;31504;51.716;9.184;2024-02-21T14:38:15;21.30;48.80
45803;DHT22;31504;51.716;9.184;2024-02-21T14:41:17;21.20;48.60
45803;DHT22;31504;51.716;9.184;2024-02-21T14:44:18;21.20;48.30
45803;DHT22;31504;51.716;9.184;2024-02-21T14:47:18;21.10;48.20
45803;DHT22;31504;51.716;9.184;2024-02-21T14:50:19;21.10;48.20
45803;DHT22;31504;51.716;9.184;2024-02-21T14:53:19;21.20;48.30
45803;DHT22;31504;51.716;9.184;2024-02-21T14:56:20;21.20;48.40
45803;DHT22;31504;51.716;9.184;2024-02-21T14:59:20;21.20;48.50
45803;DHT22;31504;51.716;9.184;2024-02-21T15:02:21;21.30;48.60
45803;DHT22;31504;51.716;9.184;2024-02-21T15:05:22;21.30;48.70
45803;DHT22;31504;51.716;9.184;2024-02-21T15:08:23;21.30;48.70
45803;DHT22;31504;51.716;9.184;2024-02-21T15:11:23;21.30;48.80
45803;DHT22;31504;51.716;9.184;2024-02-21T15:14:24;21.30;48.90
45803;DHT22;31504;51.716;9.184;2024-02-21T15:17:24;21.30;49.00
45803;DHT22;31504;51.716;9.184;2024-02-21T15:20:26;21.20;49.00
45803;DHT22;31504;51.716;9.184;2024-02-21T15:23:28;21.20;49.10
45803;DHT22;31504;51.716;9.184;2024-02-21T15:26:28;21.20;49.10
45803;DHT22;31504;51.716;9.184;2024-02-21T15:29:29;21.30;49.20
45803;DHT22;31504;51.716;9.184;2024-02-21T15:32:30;21.30;49.20
45803;DHT22;31504;51.716;9.184;2024-02-21T15:35:30;21.30;49.20
45803;DHT22;31504;51.716;9.184;2024-02-21T15:38:31;21.30;49.20
45803;DHT22;31504;51.716;9.184;2024-02-21T15:41:31;21.30;49.20
45803;DHT22;31504;51.716;9.184;2024-02-21T15:44:31;21.30;49.20
45803;DHT22;31504;51.716;9.184;2024-02-21T15:47:32;21.30;49.30
45803;DHT22;31504;51.716;9.184;2024-02-21T15:50:32;21.30;49.30
45803;DHT22;31504;51.716;9.184;2024-02-21T15:53:33;21.20;49.30
45803;DHT22;31504;51.716;9.184;2024-02-21T15:56:34;21.20;49.40
45803;DHT22;31504;51.716;9.184;2024-02-21T15:59:35;21.20;49.30
45803;DHT22;31504;51.716;9.184;2024-02-21T16:02:35;21.30;49.40
45803;DHT22;31504;51.716;9.184;2024-02-21T16:05:36;21.30;49.30
45803;DHT22;31504;51.716;9.184;2024-02-21T16:08:36;21.30;49.30
45803;DHT22;31504;51.716;9.184;2024-02-21T16:11:36;21.30;49.30
45803;DHT22;31504;51.716;9.184;2024-02-21T16:14:37;21.30;49.30
45803;DHT22;31504;51.716;9.184;2024-02-21T16:17:38;21.30;49.30
45803;DHT22;31504;51.716;9.184;2024-02-21T16:20:39;21.30;49.40
45803;DHT22;31504;51.716;9.184;2024-02-21T16:23:40;21.20;49.30
45803;DHT22;31504;51.716;9.184;2024-02-21T16:26:41;21.30;49.40
45803;DHT22;31504;51.716;9.184;2024-02-21T16:29:42;21.20;49.50
45803;DHT22;31504;51.716;9.184;2024-02-21T16:32:43;21.30;49.50
45803;DHT22;31504;51.716;9.184;2024-02-21T16:35:43;21.30;49.40
45803;DHT22;31504;51.716;9.184;2024-02-21T16:38:43;21.30;49.50
45803;DHT22;31504;51.716;9.184;2024-02-21T16:41:45;21.30;49.50
45803;DHT22;31504;51.716;9.184;2024-02-21T16:44:46;21.30;49.40
45803;DHT22;31504;51.716;9.184;2024-02-21T16:47:48;21.30;49.30
45803;DHT22;31504;51.716;9.184;2024-02-21T16:50:48;21.20;49.30
45803;DHT22;31504;51.716;9.184;2024-02-21T16:53:49;21.20;49.30
45803;DHT22;31504;51.716;9.184;2024-02-21T16:56:49;21.20;49.30
45803;DHT22;31504;51.716;9.184;2024-02-21T16:59:50;21.20;49.20
45803;DHT22;31504;51.716;9.184;2024-02-21T17:02:51;21.30;49.20
45803;DHT22;31504;51.716;9.184;2024-02-21T17:05:51;21.30;49.10
45803;DHT22;31504;51.716;9.184;2024-02-21T17:08:52;21.30;49.00
45803;DHT22;31504;51.716;9.184;2024-02-21T17:11:54;21.30;49.00
45803;DHT22;31504;51.716;9.184;2024-02-21T17:14:56;21.30;49.00
45803;DHT22;31504;51.716;9.184;2024-02-21T17:17:56;21.30;49.00
45803;DHT22;31504;51.716;9.184;2024-02-21T17:20:57;21.30;48.90
45803;DHT22;31504;51.716;9.184;2024-02-21T17:24:00;21.30;48.90
45803;DHT22;31504;51.716;9.184;2024-02-21T17:27:01;21.30;49.00
45803;DHT22;31504;51.716;9.184;2024-02-21T17:30:03;21.30;48.90
45803;DHT22;31504;51.716;9.184;2024-02-21T17:33:04;21.30;48.90
45803;DHT22;31504;51.716;9.184;2024-02-21T17:36:07;21.30;48.80
45803;DHT22;31504;51.716;9.184;2024-02-21T17:39:07;21.30;48.80
45803;DHT22;31504;51.716;9.184;2024-02-21T17:42:10;21.30;48.80
45803;DHT22;31504;51.716;9.184;2024-02-21T17:45:10;21.30;48.80
45803;DHT22;31504;51.716;9.184;2024-02-21T17:48:10;21.30;48.80
45803;DHT22;31504;51.716;9.184;2024-02-21T17:51:11;21.30;48.80
45803;DHT22;31504;51.716;9.184;2024-02-21T17:54:11;21.30;48.80
45803;DHT22;31504;51.716;9.184;2024-02-21T17:57:14;21.30;48.80
45803;DHT22;31504;51.716;9.184;2024-02-21T18:00:15;21.30;48.70
45803;DHT22;31504;51.716;9.184;2024-02-21T18:03:16;21.30;48.70
45803;DHT22;31504;51.716;9.184;2024-02-21T18:06:16;21.30;48.70
45803;DHT22;31504;51.716;9.184;2024-02-21T18:09:18;21.30;48.70
45803;DHT22;31504;51.716;9.184;2024-02-21T18:12:18;21.30;48.70
45803;DHT22;31504;51.716;9.184;2024-02-21T18:15:19;21.30;48.80
45803;DHT22;31504;51.716;9.184;2024-02-21T18:18:20;21.30;49.00
45803;DHT22;31504;51.716;9.184;2024-02-21T18:21:20;21.30;49.10
45803;DHT22;31504;51.716;9.184;2024-02-21T18:24:21;21.30;49.20
45803;DHT22;31504;51.716;9.184;2024-02-21T18:27:23;21.30;49.20
45803;DHT22;31504;51.716;9.184;2024-02-21T18:30:24;21.30;49.20
45803;DHT22;31504;51.716;9.184;2024-02-21T18:33:24;21.40;49.30
45803;DHT22;31504;51.716;9.184;2024-02-21T18:36:26;21.40;49.30
45803;DHT22;31504;51.716;9.184;2024-02-21T18:39:26;21.30;49.30
45803;DHT22;31504;51.716;9.184;2024-02-21T18:42:28;21.30;49.30
45803;DHT22;31504;51.716;9.184;2024-02-21T18:45:29;21.30;49.30
45803;DHT22;31504;51.716;9.184;2024-02-21T18:48:30;21.30;49.40
45803;DHT22;31504;51.716;9.184;2024-02-21T18:51:31;21.30;49.30
45803;DHT22;31504;51.716;9.184;2024-02-21T18:54:38;21.40;49.10
45803;DHT22;31504;51.716;9.184;2024-02-21T18:57:39;21.40;49.00
45803;DHT22;31504;51.716;9.184;2024-02-21T19:00:40;21.40;48.90
45803;DHT22;31504;51.716;9.184;2024-02-21T19:03:40;21.40;49.00
45803;DHT22;31504;51.716;9.184;2024-02-21T19:06:41;21.40;49.10